sensor_id;sensor_type;location;lat;lon;timestamp;P1;durP1;ratioP1;P2;durP2;ratioP2
19384;SDS011;9828;54.122;17.974;2022-07-22T00:04:08;20.73;;;15.30;;
19384;SDS011;9828;54.122;17.974;2022-07-22T00:09:30;17.08;;;14.15;;
19384;SDS011;9828;54.122;17.974;2022-07-22T00:14:51;16.52;;;13.88;;
19384;SDS011;9828;54.122;17.974;2022-07-22T00:20:12;20.05;;;14.75;;
19384;SDS011;9828;54.122;17.974;2022-07-22T00:25:34;22.25;;;15.30;;
19384;SDS011;9828;54.122;17.974;2022-07-22T00:30:55;19.00;;;14.65;;
19384;SDS011;9828;54.122;17.974;2022-07-22T00:36:17;20.20;;;14.27;;
19384;SDS011;9828;54.122;17.974;2022-07-22T00:41:39;17.73;;;14.68;;
19384;SDS011;9828;54.122;17.974;2022-07-22T00:47:00;16.08;;;14.38;;
19384;SDS011;9828;54.122;17.974;2022-07-22T00:52:22;16.27;;;14.00;;
19384;SDS011;9828;54.122;17.974;2022-07-22T00:57:43;15.63;;;13.63;;
19384;SDS011;9828;54.122;17.974;2022-07-22T01:03:05;17.55;;;14.43;;
19384;SDS011;9828;54.122;17.974;2022-07-22T01:08:26;19.58;;;14.48;;
19384;SDS011;9828;54.122;17.974;2022-07-22T01:13:48;18.27;;;14.07;;
19384;SDS011;9828;54.122;17.974;2022-07-22T01:19:10;19.02;;;14.85;;
19384;SDS011;9828;54.122;17.974;2022-07-22T01:24:32;19.38;;;15.18;;
19384;SDS011;9828;54.122;17.974;2022-07-22T01:29:54;15.40;;;13.75;;
19384;SDS011;9828;54.122;17.974;2022-07-22T01:35:16;19.55;;;16.17;;
19384;SDS011;9828;54.122;17.974;2022-07-22T01:40:37;20.85;;;16.30;;
19384;SDS011;9828;54.122;17.974;2022-07-22T01:45:59;20.15;;;16.33;;
19384;SDS011;9828;54.122;17.974;2022-07-22T01:51:21;18.67;;;16.40;;
19384;SDS011;9828;54.122;17.974;2022-07-22T01:56:43;20.38;;;16.23;;
19384;SDS011;9828;54.122;17.974;2022-07-22T02:02:04;21.80;;;17.15;;
19384;SDS011;9828;54.122;17.974;2022-07-22T02:07:25;19.52;;;16.27;;
19384;SDS011;9828;54.122;17.974;2022-07-22T02:12:48;20.50;;;16.48;;
19384;SDS011;9828;54.122;17.974;2022-07-22T02:18:14;20.80;;;16.75;;
19384;SDS011;9828;54.122;17.974;2022-07-22T02:23:37;22.10;;;18.00;;
19384;SDS011;9828;54.122;17.974;2022-07-22T02:28:59;21.65;;;17.75;;
19384;SDS011;9828;54.122;17.974;2022-07-22T02:34:20;23.38;;;18.50;;
19384;SDS011;9828;54.122;17.974;2022-07-22T02:39:42;28.05;;;23.50;;
19384;SDS011;9828;54.122;17.974;2022-07-22T02:45:06;24.15;;;18.88;;
19384;SDS011;9828;54.122;17.974;2022-07-22T02:50:27;22.88;;;17.52;;
19384;SDS011;9828;54.122;17.974;2022-07-22T02:55:49;22.88;;;16.42;;
19384;SDS011;9828;54.122;17.974;2022-07-22T03:01:11;21.70;;;17.70;;
19384;SDS011;9828;54.122;17.974;2022-07-22T03:06:41;28.33;;;19.35;;
19384;SDS011;9828;54.122;17.974;2022-07-22T03:12:07;27.55;;;19.10;;
19384;SDS011;9828;54.122;17.974;2022-07-22T03:17:32;23.60;;;17.17;;
19384;SDS011;9828;54.122;17.974;2022-07-22T03:22:55;20.42;;;17.33;;
19384;SDS011;9828;54.122;17.974;2022-07-22T03:28:16;27.55;;;19.45;;
19384;SDS011;9828;54.122;17.974;2022-07-22T03:33:37;24.98;;;18.20;;
19384;SDS011;9828;54.122;17.974;2022-07-22T03:39:01;19.52;;;17.35;;
19384;SDS011;9828;54.122;17.974;2022-07-22T03:44:23;20.33;;;17.40;;
19384;SDS011;9828;54.122;17.974;2022-07-22T03:49:45;18.40;;;15.50;;
19384;SDS011;9828;54.122;17.974;2022-07-22T03:55:07;19.17;;;16.30;;
19384;SDS011;9828;54.122;17.974;2022-07-22T04:00:29;16.92;;;15.10;;
19384;SDS011;9828;54.122;17.974;2022-07-22T04:05:52;17.10;;;14.57;;
19384;SDS011;9828;54.122;17.974;2022-07-22T04:11:36;15.98;;;14.27;;
19384;SDS011;9828;54.122;17.974;2022-07-22T04:16:58;18.40;;;15.23;;
19384;SDS011;9828;54.122;17.974;2022-07-22T04:22:19;21.17;;;15.38;;
19384;SDS011;9828;54.122;17.974;2022-07-22T04:27:41;19.10;;;16.27;;
19384;SDS011;9828;54.122;17.974;2022-07-22T04:33:02;28.85;;;20.77;;
19384;SDS011;9828;54.122;17.974;2022-07-22T04:38:24;33.08;;;21.85;;
19384;SDS011;9828;54.122;17.974;2022-07-22T04:43:51;32.00;;;21.65;;
19384;SDS011;9828;54.122;17.974;2022-07-22T04:49:16;38.35;;;24.77;;
19384;SDS011;9828;54.122;17.974;2022-07-22T04:54:38;29.85;;;20.50;;
19384;SDS011;9828;54.122;17.974;2022-07-22T05:00:00;25.75;;;21.33;;
19384;SDS011;9828;54.122;17.974;2022-07-22T05:05:29;26.35;;;20.95;;
19384;SDS011;9828;54.122;17.974;2022-07-22T05:10:52;28.70;;;20.70;;
19384;SDS011;9828;54.122;17.974;2022-07-22T05:16:13;25.13;;;20.77;;
19384;SDS011;9828;54.122;17.974;2022-07-22T05:21:35;29.38;;;20.63;;
19384;SDS011;9828;54.122;17.974;2022-07-22T05:26:56;23.80;;;20.17;;
19384;SDS011;9828;54.122;17.974;2022-07-22T05:32:17;25.90;;;20.75;;
19384;SDS011;9828;54.122;17.974;2022-07-22T05:37:42;24.40;;;19.45;;
19384;SDS011;9828;54.122;17.974;2022-07-22T05:43:03;21.35;;;18.00;;
19384;SDS011;9828;54.122;17.974;2022-07-22T05:48:25;23.40;;;19.25;;
19384;SDS011;9828;54.122;17.974;2022-07-22T05:53:47;27.60;;;21.17;;
19384;SDS011;9828;54.122;17.974;2022-07-22T05:59:09;24.30;;;19.58;;
19384;SDS011;9828;54.122;17.974;2022-07-22T06:04:30;23.05;;;19.52;;
19384;SDS011;9828;54.122;17.974;2022-07-22T06:09:53;24.38;;;18.58;;
19384;SDS011;9828;54.122;17.974;2022-07-22T06:15:14;25.90;;;18.40;;
19384;SDS011;9828;54.122;17.974;2022-07-22T06:20:37;25.55;;;19.65;;
19384;SDS011;9828;54.122;17.974;2022-07-22T06:25:58;21.73;;;17.95;;
19384;SDS011;9828;54.122;17.974;2022-07-22T06:31:27;21.13;;;18.52;;
19384;SDS011;9828;54.122;17.974;2022-07-22T06:36:49;27.02;;;21.38;;
19384;SDS011;9828;54.122;17.974;2022-07-22T06:42:10;25.42;;;20.33;;
19384;SDS011;9828;54.122;17.974;2022-07-22T06:48:04;25.05;;;19.83;;
19384;SDS011;9828;54.122;17.974;2022-07-22T06:53:25;19.48;;;17.27;;
19384;SDS011;9828;54.122;17.974;2022-07-22T06:58:47;20.63;;;17.30;;
19384;SDS011;9828;54.122;17.974;2022-07-22T07:04:10;22.70;;;16.75;;
19384;SDS011;9828;54.122;17.974;2022-07-22T07:09:32;26.08;;;20.65;;
19384;SDS011;9828;54.122;17.974;2022-07-22T07:15:06;22.77;;;18.52;;
19384;SDS011;9828;54.122;17.974;2022-07-22T07:20:47;27.92;;;20.17;;
19384;SDS011;9828;54.122;17.974;2022-07-22T07:26:08;24.45;;;20.20;;
19384;SDS011;9828;54.122;17.974;2022-07-22T07:31:30;26.58;;;21.70;;
19384;SDS011;9828;54.122;17.974;2022-07-22T07:36:55;33.95;;;21.80;;
19384;SDS011;9828;54.122;17.974;2022-07-22T07:42:19;22.67;;;17.92;;
19384;SDS011;9828;54.122;17.974;2022-07-22T07:47:41;22.33;;;18.10;;
19384;SDS011;9828;54.122;17.974;2022-07-22T07:53:04;20.13;;;16.92;;
19384;SDS011;9828;54.122;17.974;2022-07-22T07:58:26;25.08;;;16.55;;
19384;SDS011;9828;54.122;17.974;2022-07-22T08:03:47;19.30;;;14.95;;
19384;SDS011;9828;54.122;17.974;2022-07-22T08:09:14;18.15;;;14.88;;
19384;SDS011;9828;54.122;17.974;2022-07-22T08:14:36;18.05;;;13.05;;
19384;SDS011;9828;54.122;17.974;2022-07-22T08:20:16;15.82;;;13.27;;
19384;SDS011;9828;54.122;17.974;2022-07-22T08:25:41;16.73;;;12.70;;
19384;SDS011;9828;54.122;17.974;2022-07-22T08:31:03;21.80;;;13.05;;
19384;SDS011;9828;54.122;17.974;2022-07-22T08:36:26;14.27;;;12.73;;
19384;SDS011;9828;54.122;17.974;2022-07-22T08:41:48;16.95;;;13.40;;
19384;SDS011;9828;54.122;17.974;2022-07-22T08:47:11;16.15;;;13.55;;
19384;SDS011;9828;54.122;17.974;2022-07-22T08:53:18;17.23;;;13.90;;
19384;SDS011;9828;54.122;17.974;2022-07-22T08:58:40;17.25;;;13.27;;
19384;SDS011;9828;54.122;17.974;2022-07-22T09:04:02;17.63;;;13.23;;
19384;SDS011;9828;54.122;17.974;2022-07-22T09:09:29;13.25;;;11.77;;
19384;SDS011;9828;54.122;17.974;2022-07-22T09:15:13;13.73;;;12.32;;
19384;SDS011;9828;54.122;17.974;2022-07-22T09:20:41;10.77;;;8.82;;
19384;SDS011;9828;54.122;17.974;2022-07-22T09:26:31;7.68;;;6.97;;
19384;SDS011;9828;54.122;17.974;2022-07-22T09:32:13;7.45;;;6.68;;
19384;SDS011;9828;54.122;17.974;2022-07-22T09:37:56;8.65;;;6.60;;
19384;SDS011;9828;54.122;17.974;2022-07-22T09:43:19;13.32;;;11.93;;
19384;SDS011;9828;54.122;17.974;2022-07-22T09:48:41;8.82;;;7.45;;
19384;SDS011;9828;54.122;17.974;2022-07-22T09:54:42;7.40;;;6.13;;
19384;SDS011;9828;54.122;17.974;2022-07-22T10:00:04;7.65;;;5.90;;
19384;SDS011;9828;54.122;17.974;2022-07-22T10:05:46;9.70;;;6.35;;
19384;SDS011;9828;54.122;17.974;2022-07-22T10:11:08;7.82;;;6.50;;
19384;SDS011;9828;54.122;17.974;2022-07-22T10:16:33;6.35;;;5.75;;
19384;SDS011;9828;54.122;17.974;2022-07-22T10:21:56;8.40;;;6.55;;
19384;SDS011;9828;54.122;17.974;2022-07-22T10:27:43;5.53;;;5.03;;
19384;SDS011;9828;54.122;17.974;2022-07-22T10:33:18;13.82;;;11.43;;
19384;SDS011;9828;54.122;17.974;2022-07-22T10:50:45;5.38;;;4.88;;
19384;SDS011;9828;54.122;17.974;2022-07-22T10:56:15;5.80;;;4.82;;
19384;SDS011;9828;54.122;17.974;2022-07-22T11:01:56;5.57;;;4.53;;
19384;SDS011;9828;54.122;17.974;2022-07-22T11:07:18;6.78;;;4.68;;
19384;SDS011;9828;54.122;17.974;2022-07-22T11:12:40;6.40;;;4.43;;
19384;SDS011;9828;54.122;17.974;2022-07-22T11:18:02;5.88;;;4.93;;
19384;SDS011;9828;54.122;17.974;2022-07-22T11:23:25;5.50;;;5.00;;
19384;SDS011;9828;54.122;17.974;2022-07-22T11:28:46;7.72;;;5.72;;
19384;SDS011;9828;54.122;17.974;2022-07-22T11:34:14;6.70;;;4.78;;
19384;SDS011;9828;54.122;17.974;2022-07-22T11:39:37;6.75;;;4.80;;
19384;SDS011;9828;54.122;17.974;2022-07-22T11:44:59;5.93;;;4.90;;
19384;SDS011;9828;54.122;17.974;2022-07-22T11:50:30;6.32;;;4.50;;
19384;SDS011;9828;54.122;17.974;2022-07-22T11:55:55;7.85;;;4.82;;
19384;SDS011;9828;54.122;17.974;2022-07-22T12:01:18;5.03;;;4.47;;
19384;SDS011;9828;54.122;17.974;2022-07-22T12:06:40;5.53;;;5.03;;
19384;SDS011;9828;54.122;17.974;2022-07-22T12:12:04;7.78;;;4.97;;
19384;SDS011;9828;54.122;17.974;2022-07-22T12:17:27;6.15;;;4.80;;
19384;SDS011;9828;54.122;17.974;2022-07-22T12:22:48;7.28;;;6.50;;
19384;SDS011;9828;54.122;17.974;2022-07-22T12:28:10;5.78;;;4.70;;
19384;SDS011;9828;54.122;17.974;2022-07-22T12:33:31;6.57;;;5.63;;
19384;SDS011;9828;54.122;17.974;2022-07-22T12:38:53;5.85;;;5.15;;
19384;SDS011;9828;54.122;17.974;2022-07-22T12:44:15;10.00;;;5.50;;
19384;SDS011;9828;54.122;17.974;2022-07-22T12:49:38;8.52;;;5.57;;
19384;SDS011;9828;54.122;17.974;2022-07-22T12:54:59;5.97;;;5.10;;
19384;SDS011;9828;54.122;17.974;2022-07-22T13:00:22;7.47;;;6.00;;
19384;SDS011;9828;54.122;17.974;2022-07-22T13:05:46;5.55;;;5.05;;
19384;SDS011;9828;54.122;17.974;2022-07-22T13:11:12;6.07;;;5.32;;
19384;SDS011;9828;54.122;17.974;2022-07-22T13:16:35;8.40;;;6.38;;
19384;SDS011;9828;54.122;17.974;2022-07-22T13:21:57;6.00;;;5.22;;
19384;SDS011;9828;54.122;17.974;2022-07-22T13:27:19;5.68;;;5.07;;
19384;SDS011;9828;54.122;17.974;2022-07-22T13:32:40;10.27;;;4.80;;
19384;SDS011;9828;54.122;17.974;2022-07-22T13:38:07;6.82;;;5.85;;
19384;SDS011;9828;54.122;17.974;2022-07-22T13:43:32;6.40;;;5.40;;
19384;SDS011;9828;54.122;17.974;2022-07-22T13:48:54;9.00;;;5.45;;
19384;SDS011;9828;54.122;17.974;2022-07-22T13:54:15;6.30;;;5.40;;
19384;SDS011;9828;54.122;17.974;2022-07-22T13:59:37;5.80;;;5.05;;
19384;SDS011;9828;54.122;17.974;2022-07-22T14:04:59;6.05;;;5.55;;
19384;SDS011;9828;54.122;17.974;2022-07-22T14:10:20;7.68;;;6.53;;
19384;SDS011;9828;54.122;17.974;2022-07-22T14:15:42;6.00;;;5.13;;
19384;SDS011;9828;54.122;17.974;2022-07-22T14:21:03;6.68;;;5.35;;
19384;SDS011;9828;54.122;17.974;2022-07-22T14:26:25;6.35;;;5.38;;
19384;SDS011;9828;54.122;17.974;2022-07-22T14:31:47;9.05;;;4.95;;
19384;SDS011;9828;54.122;17.974;2022-07-22T14:37:09;12.30;;;5.10;;
19384;SDS011;9828;54.122;17.974;2022-07-22T14:42:30;8.38;;;5.97;;
19384;SDS011;9828;54.122;17.974;2022-07-22T14:47:52;6.28;;;5.20;;
19384;SDS011;9828;54.122;17.974;2022-07-22T14:53:13;6.15;;;4.45;;
19384;SDS011;9828;54.122;17.974;2022-07-22T14:58:35;7.65;;;5.00;;
19384;SDS011;9828;54.122;17.974;2022-07-22T15:03:56;5.18;;;4.10;;
19384;SDS011;9828;54.122;17.974;2022-07-22T15:09:17;5.60;;;4.95;;
19384;SDS011;9828;54.122;17.974;2022-07-22T15:14:39;4.97;;;4.20;;
19384;SDS011;9828;54.122;17.974;2022-07-22T15:20:01;5.25;;;4.07;;
19384;SDS011;9828;54.122;17.974;2022-07-22T15:25:23;4.60;;;4.13;;
19384;SDS011;9828;54.122;17.974;2022-07-22T15:30:44;6.65;;;4.05;;
19384;SDS011;9828;54.122;17.974;2022-07-22T15:36:06;5.13;;;3.92;;
19384;SDS011;9828;54.122;17.974;2022-07-22T15:41:29;5.05;;;4.32;;
19384;SDS011;9828;54.122;17.974;2022-07-22T15:46:51;5.38;;;4.50;;
19384;SDS011;9828;54.122;17.974;2022-07-22T15:52:15;5.25;;;4.72;;
19384;SDS011;9828;54.122;17.974;2022-07-22T15:57:36;6.43;;;4.95;;
19384;SDS011;9828;54.122;17.974;2022-07-22T16:03:16;5.07;;;4.55;;
19384;SDS011;9828;54.122;17.974;2022-07-22T16:08:38;6.75;;;4.88;;
19384;SDS011;9828;54.122;17.974;2022-07-22T16:14:00;5.55;;;4.60;;
19384;SDS011;9828;54.122;17.974;2022-07-22T16:19:21;6.47;;;5.65;;
19384;SDS011;9828;54.122;17.974;2022-07-22T16:24:42;7.80;;;5.90;;
19384;SDS011;9828;54.122;17.974;2022-07-22T16:30:04;6.93;;;6.03;;
19384;SDS011;9828;54.122;17.974;2022-07-22T16:35:26;6.43;;;5.82;;
19384;SDS011;9828;54.122;17.974;2022-07-22T16:40:48;9.05;;;5.47;;
19384;SDS011;9828;54.122;17.974;2022-07-22T16:46:09;7.15;;;5.22;;
19384;SDS011;9828;54.122;17.974;2022-07-22T16:51:31;6.70;;;5.75;;
19384;SDS011;9828;54.122;17.974;2022-07-22T16:56:53;6.32;;;5.63;;
19384;SDS011;9828;54.122;17.974;2022-07-22T17:02:14;8.13;;;5.60;;
19384;SDS011;9828;54.122;17.974;2022-07-22T17:07:36;6.75;;;6.05;;
19384;SDS011;9828;54.122;17.974;2022-07-22T17:12:56;5.55;;;4.90;;
19384;SDS011;9828;54.122;17.974;2022-07-22T17:18:37;5.85;;;5.20;;
19384;SDS011;9828;54.122;17.974;2022-07-22T17:23:59;7.65;;;5.60;;
19384;SDS011;9828;54.122;17.974;2022-07-22T17:29:20;7.68;;;5.53;;
19384;SDS011;9828;54.122;17.974;2022-07-22T17:34:42;6.03;;;5.00;;
19384;SDS011;9828;54.122;17.974;2022-07-22T17:40:04;5.45;;;4.95;;
19384;SDS011;9828;54.122;17.974;2022-07-22T17:45:25;6.38;;;5.45;;
19384;SDS011;9828;54.122;17.974;2022-07-22T17:50:46;6.82;;;5.60;;
19384;SDS011;9828;54.122;17.974;2022-07-22T17:56:08;5.95;;;5.35;;
19384;SDS011;9828;54.122;17.974;2022-07-22T18:01:50;7.05;;;5.45;;
19384;SDS011;9828;54.122;17.974;2022-07-22T18:07:11;7.32;;;5.82;;
19384;SDS011;9828;54.122;17.974;2022-07-22T18:12:33;8.45;;;5.57;;
19384;SDS011;9828;54.122;17.974;2022-07-22T18:17:54;5.15;;;4.65;;
19384;SDS011;9828;54.122;17.974;2022-07-22T18:23:15;5.68;;;5.15;;
19384;SDS011;9828;54.122;17.974;2022-07-22T18:28:37;6.32;;;5.38;;
19384;SDS011;9828;54.122;17.974;2022-07-22T18:34:01;6.40;;;5.43;;
19384;SDS011;9828;54.122;17.974;2022-07-22T18:39:22;5.28;;;4.88;;
19384;SDS011;9828;54.122;17.974;2022-07-22T18:44:44;5.97;;;5.38;;
19384;SDS011;9828;54.122;17.974;2022-07-22T18:50:05;5.50;;;5.00;;
19384;SDS011;9828;54.122;17.974;2022-07-22T18:55:27;7.75;;;5.32;;
19384;SDS011;9828;54.122;17.974;2022-07-22T19:00:49;6.50;;;5.90;;
19384;SDS011;9828;54.122;17.974;2022-07-22T19:06:10;6.28;;;5.68;;
19384;SDS011;9828;54.122;17.974;2022-07-22T19:11:31;7.03;;;5.88;;
19384;SDS011;9828;54.122;17.974;2022-07-22T19:16:52;6.03;;;5.43;;
19384;SDS011;9828;54.122;17.974;2022-07-22T19:22:14;9.00;;;5.70;;
19384;SDS011;9828;54.122;17.974;2022-07-22T19:27:35;6.43;;;5.55;;
19384;SDS011;9828;54.122;17.974;2022-07-22T19:32:56;5.85;;;5.25;;
19384;SDS011;9828;54.122;17.974;2022-07-22T19:38:18;6.03;;;5.25;;
19384;SDS011;9828;54.122;17.974;2022-07-22T19:43:39;7.97;;;5.78;;
19384;SDS011;9828;54.122;17.974;2022-07-22T19:49:00;7.35;;;5.32;;
19384;SDS011;9828;54.122;17.974;2022-07-22T19:54:21;8.20;;;5.80;;
19384;SDS011;9828;54.122;17.974;2022-07-22T19:59:43;7.25;;;5.53;;
19384;SDS011;9828;54.122;17.974;2022-07-22T20:05:05;7.90;;;5.93;;
19384;SDS011;9828;54.122;17.974;2022-07-22T20:10:27;6.40;;;5.80;;
19384;SDS011;9828;54.122;17.974;2022-07-22T20:15:48;5.75;;;5.25;;
19384;SDS011;9828;54.122;17.974;2022-07-22T20:21:10;5.80;;;5.20;;
19384;SDS011;9828;54.122;17.974;2022-07-22T20:26:31;6.85;;;6.15;;
19384;SDS011;9828;54.122;17.974;2022-07-22T20:31:52;7.88;;;6.20;;
19384;SDS011;9828;54.122;17.974;2022-07-22T20:37:14;6.90;;;4.53;;
19384;SDS011;9828;54.122;17.974;2022-07-22T20:42:36;6.25;;;5.05;;
19384;SDS011;9828;54.122;17.974;2022-07-22T20:47:57;5.72;;;4.95;;
19384;SDS011;9828;54.122;17.974;2022-07-22T20:53:19;5.07;;;4.55;;
19384;SDS011;9828;54.122;17.974;2022-07-22T20:58:40;5.47;;;4.72;;
19384;SDS011;9828;54.122;17.974;2022-07-22T21:04:01;5.22;;;4.70;;
19384;SDS011;9828;54.122;17.974;2022-07-22T21:09:23;5.22;;;4.45;;
19384;SDS011;9828;54.122;17.974;2022-07-22T21:14:44;5.25;;;4.43;;
19384;SDS011;9828;54.122;17.974;2022-07-22T21:20:06;4.40;;;4.00;;
19384;SDS011;9828;54.122;17.974;2022-07-22T21:25:28;4.78;;;3.97;;
19384;SDS011;9828;54.122;17.974;2022-07-22T21:30:50;4.90;;;4.40;;
19384;SDS011;9828;54.122;17.974;2022-07-22T21:36:11;6.72;;;4.50;;
19384;SDS011;9828;54.122;17.974;2022-07-22T21:41:36;4.82;;;4.25;;
19384;SDS011;9828;54.122;17.974;2022-07-22T21:46:57;4.43;;;4.00;;
19384;SDS011;9828;54.122;17.974;2022-07-22T21:52:19;4.63;;;4.15;;
19384;SDS011;9828;54.122;17.974;2022-07-22T21:57:40;4.97;;;4.47;;
19384;SDS011;9828;54.122;17.974;2022-07-22T22:03:02;7.20;;;4.55;;
19384;SDS011;9828;54.122;17.974;2022-07-22T22:08:23;5.13;;;3.90;;
19384;SDS011;9828;54.122;17.974;2022-07-22T22:13:45;6.53;;;5.47;;
19384;SDS011;9828;54.122;17.974;2022-07-22T22:19:07;5.78;;;5.15;;
19384;SDS011;9828;54.122;17.974;2022-07-22T22:24:28;4.32;;;3.92;;
19384;SDS011;9828;54.122;17.974;2022-07-22T22:29:49;5.25;;;4.00;;
19384;SDS011;9828;54.122;17.974;2022-07-22T22:35:11;5.07;;;3.88;;
19384;SDS011;9828;54.122;17.974;2022-07-22T22:40:32;4.28;;;3.88;;
19384;SDS011;9828;54.122;17.974;2022-07-22T22:45:54;4.15;;;3.70;;
19384;SDS011;9828;54.122;17.974;2022-07-22T22:51:15;4.47;;;3.70;;
19384;SDS011;9828;54.122;17.974;2022-07-22T22:56:37;3.80;;;3.40;;
19384;SDS011;9828;54.122;17.974;2022-07-22T23:01:58;3.95;;;3.28;;
19384;SDS011;9828;54.122;17.974;2022-07-22T23:07:19;4.28;;;3.33;;
19384;SDS011;9828;54.122;17.974;2022-07-22T23:12:41;4.55;;;3.20;;
19384;SDS011;9828;54.122;17.974;2022-07-22T23:18:02;3.85;;;3.15;;
19384;SDS011;9828;54.122;17.974;2022-07-22T23:23:23;4.68;;;3.42;;
19384;SDS011;9828;54.122;17.974;2022-07-22T23:28:45;4.70;;;3.30;;
19384;SDS011;9828;54.122;17.974;2022-07-22T23:34:06;4.15;;;3.65;;
19384;SDS011;9828;54.122;17.974;2022-07-22T23:39:28;3.80;;;3.42;;
19384;SDS011;9828;54.122;17.974;2022-07-22T23:44:49;3.72;;;3.42;;
19384;SDS011;9828;54.122;17.974;2022-07-22T23:50:11;5.35;;;3.38;;
19384;SDS011;9828;54.122;17.974;2022-07-22T23:55:32;3.70;;;3.40;;
